Bramon, Sweden

10:56 PM CET on February 11, 2016 (GMT +0100)
Sundsvall-Harnosand | | Change Station
CLOSE
Current Station
Airport
Location: Sundsvall-Harnosand Airpor,
Elevation: 10 ft
Nearby Weather Stations

Elev 10 ft 62.53 °N, 17.44 °E | Updated 6 minutes ago

Light Snow
Light Snow
30 °F
Feels Like 22 °F
N
9
Wind Variable Wind from NW

Today
High -- | Low -- °F
--% Chance of Precip.
Yesterday
High -- | Low -- °F
Precip. -- in
Pressure 29.47 in
Visibility 6.2 miles
Clouds Scattered Clouds 3200 ft
Overcast 8200 ft
Windchill 22 °F
Dew Point 23 °F
Humidity 75%
Rainfall 0.00 in
Snow Depth Not available.
7:49 AM 4:17 PM
Waxing Crescent, 14% visible
METAR ESNN 112150Z 32008KT 9999 -SN SCT032 OVC082 M01/M05 Q0998 R16/72//66
Pressure 29.47 in
Visibility 6.2 miles
Clouds Scattered Clouds 3200 ft
Overcast 8200 ft
Windchill 22 °F
Dew Point 23 °F
Humidity 75%
Rainfall 0.00 in
Snow Depth Not available.
7:49 AM 4:17 PM
Waxing Crescent, 14% visible
METAR ESNN 112150Z 32008KT 9999 -SN SCT032 OVC082 M01/M05 Q0998 R16/72//66

10-Day Weather Forecast

Almanac

Astronomy

Feb. 11, 2016 Rise Set
Actual Time
Civil Twilight
Nautical Twilight
Astronomical Twilight
Moon
Length of Visible Light
Length of Day
Tomorrow will be .
, % of the Moon is Illuminated

Today's Extremes

Country Highs Country Lows

Community

WunderPhotos

Upload Photos

1,892,165 photos uploaded!

WunderBlog® & News

Nearby

Air Quality

  Air Quality AQ Index Pollutant
Not available.

Snow Depth

Station Depth Elevation

Earthquake Activity

City Distance Mag. Time & Date
Minimum magnitude displayed is 2.5.

Coastal Water Temperatures

Place Temperature

Stations

Nearby Weather Stations

Station Location Temp. Windchill Dew Point Humidity Wind Precip. Elev Updated Type